sensor_id;sensor_type;location;lat;lon;timestamp;pressure;altitude;pressure_sealevel;temperature;humidity
71976;BME280;68326;52.124;5.424;2023-07-31T00:01:12;100970.09;;;15.28;100.00
71976;BME280;68326;52.124;5.424;2023-07-31T00:03:38;100972.69;;;15.28;100.00
71976;BME280;68326;52.124;5.424;2023-07-31T00:06:05;100967.56;;;15.26;100.00
71976;BME280;68326;52.124;5.424;2023-07-31T00:08:32;100962.09;;;15.29;100.00
71976;BME280;68326;52.124;5.424;2023-07-31T00:10:58;100961.91;;;15.33;100.00
71976;BME280;68326;52.124;5.424;2023-07-31T00:13:25;100956.44;;;15.36;100.00
71976;BME280;68326;52.124;5.424;2023-07-31T00:15:51;100945.53;;;15.42;100.00
71976;BME280;68326;52.124;5.424;2023-07-31T00:18:18;100938.88;;;15.49;100.00
71976;BME280;68326;52.124;5.424;2023-07-31T00:20:45;100923.88;;;15.51;100.00
71976;BME280;68326;52.124;5.424;2023-07-31T00:23:12;100930.59;;;15.55;100.00
71976;BME280;68326;52.124;5.424;2023-07-31T00:25:39;100928.84;;;15.56;100.00
71976;BME280;68326;52.124;5.424;2023-07-31T00:28:06;100931.22;;;15.59;100.00
71976;BME280;68326;52.124;5.424;2023-07-31T00:30:32;100938.03;;;15.61;100.00
71976;BME280;68326;52.124;5.424;2023-07-31T00:32:59;100933.53;;;15.63;100.00
71976;BME280;68326;52.124;5.424;2023-07-31T00:35:25;100932.59;;;15.64;100.00
71976;BME280;68326;52.124;5.424;2023-07-31T00:37:52;100932.16;;;15.70;100.00
71976;BME280;68326;52.124;5.424;2023-07-31T00:40:18;100929.34;;;15.74;100.00
71976;BME280;68326;52.124;5.424;2023-07-31T00:42:45;100929.66;;;15.82;100.00
71976;BME280;68326;52.124;5.424;2023-07-31T00:45:11;100917.41;;;15.94;100.00
71976;BME280;68326;52.124;5.424;2023-07-31T00:47:38;100917.59;;;16.03;100.00
71976;BME280;68326;52.124;5.424;2023-07-31T00:50:05;100918.81;;;16.10;100.00
71976;BME280;68326;52.124;5.424;2023-07-31T00:52:33;100913.75;;;16.20;100.00
71976;BME280;68326;52.124;5.424;2023-07-31T00:54:59;100919.28;;;16.28;100.00
71976;BME280;68326;52.124;5.424;2023-07-31T00:57:26;100913.44;;;16.36;100.00
71976;BME280;68326;52.124;5.424;2023-07-31T00:59:53;100913.88;;;16.43;100.00
71976;BME280;68326;52.124;5.424;2023-07-31T01:02:19;100903.84;;;16.48;100.00
71976;BME280;68326;52.124;5.424;2023-07-31T01:04:46;100903.50;;;16.52;100.00
71976;BME280;68326;52.124;5.424;2023-07-31T01:07:14;100909.25;;;16.58;100.00
71976;BME280;68326;52.124;5.424;2023-07-31T01:10:05;100904.25;;;16.66;100.00
71976;BME280;68326;52.124;5.424;2023-07-31T01:12:34;100908.56;;;16.67;100.00
71976;BME280;68326;52.124;5.424;2023-07-31T01:17:27;100900.31;;;16.71;100.00
71976;BME280;68326;52.124;5.424;2023-07-31T01:19:55;100910.72;;;16.73;100.00
71976;BME280;68326;52.124;5.424;2023-07-31T01:22:42;100918.50;;;16.75;100.00
71976;BME280;68326;52.124;5.424;2023-07-31T01:28:01;100911.47;;;16.75;100.00
71976;BME280;68326;52.124;5.424;2023-07-31T01:30:33;100906.41;;;16.72;100.00
71976;BME280;68326;52.124;5.424;2023-07-31T01:33:03;100904.66;;;16.73;100.00
71976;BME280;68326;52.124;5.424;2023-07-31T01:35:34;100904.50;;;16.74;100.00
71976;BME280;68326;52.124;5.424;2023-07-31T01:38:01;100903.69;;;16.74;100.00
71976;BME280;68326;52.124;5.424;2023-07-31T01:40:28;100907.28;;;16.73;100.00
71976;BME280;68326;52.124;5.424;2023-07-31T01:42:55;100914.19;;;16.74;100.00
71976;BME280;68326;52.124;5.424;2023-07-31T01:45:21;100910.63;;;16.75;100.00
71976;BME280;68326;52.124;5.424;2023-07-31T01:47:48;100912.28;;;16.76;100.00
71976;BME280;68326;52.124;5.424;2023-07-31T01:50:14;100899.97;;;16.76;100.00
71976;BME280;68326;52.124;5.424;2023-07-31T01:52:41;100901.66;;;16.77;100.00
71976;BME280;68326;52.124;5.424;2023-07-31T01:55:07;100896.41;;;16.77;100.00
71976;BME280;68326;52.124;5.424;2023-07-31T01:57:36;100895.44;;;16.78;100.00
71976;BME280;68326;52.124;5.424;2023-07-31T02:00:03;100895.44;;;16.78;100.00
71976;BME280;68326;52.124;5.424;2023-07-31T02:02:31;100888.38;;;16.79;100.00
71976;BME280;68326;52.124;5.424;2023-07-31T02:04:58;100885.75;;;16.79;100.00
71976;BME280;68326;52.124;5.424;2023-07-31T02:07:24;100891.88;;;16.79;100.00
71976;BME280;68326;52.124;5.424;2023-07-31T02:09:51;100882.31;;;16.78;100.00
71976;BME280;68326;52.124;5.424;2023-07-31T02:12:17;100880.75;;;16.76;100.00
71976;BME280;68326;52.124;5.424;2023-07-31T02:14:44;100872.88;;;16.76;100.00
71976;BME280;68326;52.124;5.424;2023-07-31T02:17:11;100865.09;;;16.74;100.00
71976;BME280;68326;52.124;5.424;2023-07-31T02:19:37;100872.25;;;16.72;100.00
71976;BME280;68326;52.124;5.424;2023-07-31T02:22:04;100860.91;;;16.71;100.00
71976;BME280;68326;52.124;5.424;2023-07-31T02:24:31;100854.81;;;16.71;100.00
71976;BME280;68326;52.124;5.424;2023-07-31T02:26:58;100855.03;;;16.68;100.00
71976;BME280;68326;52.124;5.424;2023-07-31T02:29:24;100860.44;;;16.66;100.00
71976;BME280;68326;52.124;5.424;2023-07-31T02:31:51;100859.47;;;16.67;100.00
71976;BME280;68326;52.124;5.424;2023-07-31T02:34:18;100859.47;;;16.67;100.00
71976;BME280;68326;52.124;5.424;2023-07-31T02:36:44;100852.56;;;16.66;100.00
71976;BME280;68326;52.124;5.424;2023-07-31T02:39:10;100850.66;;;16.68;100.00
71976;BME280;68326;52.124;5.424;2023-07-31T02:41:37;100847.16;;;16.68;100.00
71976;BME280;68326;52.124;5.424;2023-07-31T02:44:03;100855.03;;;16.68;100.00
71976;BME280;68326;52.124;5.424;2023-07-31T02:46:30;100857.66;;;16.68;100.00
71976;BME280;68326;52.124;5.424;2023-07-31T02:48:57;100863.78;;;16.68;100.00
71976;BME280;68326;52.124;5.424;2023-07-31T02:51:24;100852.41;;;16.68;100.00
71976;BME280;68326;52.124;5.424;2023-07-31T02:53:50;100848.84;;;16.69;100.00
71976;BME280;68326;52.124;5.424;2023-07-31T02:56:17;100841.31;;;16.64;100.00
71976;BME280;68326;52.124;5.424;2023-07-31T02:58:44;100835.22;;;16.64;100.00
71976;BME280;68326;52.124;5.424;2023-07-31T03:01:10;100829.94;;;16.64;100.00
71976;BME280;68326;52.124;5.424;2023-07-31T03:03:37;100834.28;;;16.65;100.00
71976;BME280;68326;52.124;5.424;2023-07-31T03:06:04;100839.53;;;16.65;100.00
71976;BME280;68326;52.124;5.424;2023-07-31T03:08:30;100837.84;;;16.64;100.00
71976;BME280;68326;52.124;5.424;2023-07-31T03:10:57;100830.09;;;16.62;100.00
71976;BME280;68326;52.124;5.424;2023-07-31T03:13:23;100837.16;;;16.62;100.00
71976;BME280;68326;52.124;5.424;2023-07-31T03:15:50;100836.28;;;16.61;100.00
71976;BME280;68326;52.124;5.424;2023-07-31T03:18:17;100838.06;;;16.61;100.00
71976;BME280;68326;52.124;5.424;2023-07-31T03:20:43;100837.34;;;16.59;100.00
71976;BME280;68326;52.124;5.424;2023-07-31T03:23:10;100834.63;;;16.60;100.00
71976;BME280;68326;52.124;5.424;2023-07-31T03:25:37;100832.09;;;16.59;100.00
71976;BME280;68326;52.124;5.424;2023-07-31T03:28:03;100832.09;;;16.59;100.00
71976;BME280;68326;52.124;5.424;2023-07-31T03:30:30;100828.53;;;16.60;100.00
71976;BME280;68326;52.124;5.424;2023-07-31T03:32:57;100830.44;;;16.58;100.00
71976;BME280;68326;52.124;5.424;2023-07-31T03:35:23;100831.38;;;16.57;100.00
71976;BME280;68326;52.124;5.424;2023-07-31T03:37:50;100834.13;;;16.55;100.00
71976;BME280;68326;52.124;5.424;2023-07-31T03:40:16;100827.31;;;16.52;100.00
71976;BME280;68326;52.124;5.424;2023-07-31T03:42:43;100828.88;;;16.55;100.00
71976;BME280;68326;52.124;5.424;2023-07-31T03:45:10;100828.38;;;16.50;100.00
71976;BME280;68326;52.124;5.424;2023-07-31T03:47:36;100824.94;;;16.49;100.00
71976;BME280;68326;52.124;5.424;2023-07-31T03:50:03;100822.41;;;16.48;100.00
71976;BME280;68326;52.124;5.424;2023-07-31T03:52:29;100828.38;;;16.50;100.00
71976;BME280;68326;52.124;5.424;2023-07-31T03:54:56;100833.63;;;16.50;100.00
71976;BME280;68326;52.124;5.424;2023-07-31T03:57:23;100826.69;;;16.49;100.00
71976;BME280;68326;52.124;5.424;2023-07-31T03:59:49;100829.47;;;16.47;100.00
71976;BME280;68326;52.124;5.424;2023-07-31T04:02:15;100822.66;;;16.45;100.00
71976;BME280;68326;52.124;5.424;2023-07-31T04:04:42;100818.22;;;16.45;100.00
71976;BME280;68326;52.124;5.424;2023-07-31T04:07:09;100817.50;;;16.43;100.00
71976;BME280;68326;52.124;5.424;2023-07-31T04:09:35;100815.09;;;16.40;100.00
71976;BME280;68326;52.124;5.424;2023-07-31T04:12:02;100809.13;;;16.38;100.00
71976;BME280;68326;52.124;5.424;2023-07-31T04:14:28;100805.78;;;16.36;100.00
71976;BME280;68326;52.124;5.424;2023-07-31T04:16:55;100798.13;;;16.33;100.00
71976;BME280;68326;52.124;5.424;2023-07-31T04:19:21;100799.09;;;16.32;100.00
71976;BME280;68326;52.124;5.424;2023-07-31T04:21:48;100790.63;;;16.28;100.00
71976;BME280;68326;52.124;5.424;2023-07-31T04:24:15;100784.63;;;16.26;100.00
71976;BME280;68326;52.124;5.424;2023-07-31T04:26:42;100777.47;;;16.28;100.00
71976;BME280;68326;52.124;5.424;2023-07-31T04:29:08;100786.31;;;16.27;100.00
71976;BME280;68326;52.124;5.424;2023-07-31T04:31:35;100780.22;;;16.27;100.00
71976;BME280;68326;52.124;5.424;2023-07-31T04:34:05;100786.31;;;16.27;100.00
71976;BME280;68326;52.124;5.424;2023-07-31T04:36:31;100791.56;;;16.27;100.00
71976;BME280;68326;52.124;5.424;2023-07-31T04:38:58;100786.91;;;16.31;100.00
71976;BME280;68326;52.124;5.424;2023-07-31T04:41:24;100788.00;;;16.28;100.00
71976;BME280;68326;52.124;5.424;2023-07-31T04:43:51;100790.50;;;16.30;100.00
71976;BME280;68326;52.124;5.424;2023-07-31T04:46:17;100786.19;;;16.29;100.00
71976;BME280;68326;52.124;5.424;2023-07-31T04:48:44;100790.97;;;16.24;100.00
71976;BME280;68326;52.124;5.424;2023-07-31T04:51:10;100787.72;;;16.20;100.00
71976;BME280;68326;52.124;5.424;2023-07-31T04:53:37;100784.03;;;16.23;100.00
71976;BME280;68326;52.124;5.424;2023-07-31T04:56:03;100782.38;;;16.22;100.00
71976;BME280;68326;52.124;5.424;2023-07-31T04:58:30;100778.06;;;16.21;100.00
71976;BME280;68326;52.124;5.424;2023-07-31T05:00:57;100773.78;;;16.20;100.00
71976;BME280;68326;52.124;5.424;2023-07-31T05:03:23;100768.00;;;16.15;100.00
71976;BME280;68326;52.124;5.424;2023-07-31T05:05:50;100769.19;;;16.10;100.00
71976;BME280;68326;52.124;5.424;2023-07-31T05:08:16;100763.22;;;16.08;100.00
71976;BME280;68326;52.124;5.424;2023-07-31T05:10:44;100758.09;;;16.07;100.00
71976;BME280;68326;52.124;5.424;2023-07-31T05:13:10;100760.84;;;16.05;100.00
71976;BME280;68326;52.124;5.424;2023-07-31T05:15:38;100763.34;;;16.07;100.00
71976;BME280;68326;52.124;5.424;2023-07-31T05:18:04;100759.16;;;16.04;100.00
71976;BME280;68326;52.124;5.424;2023-07-31T05:20:31;100752.34;;;16.02;100.00
71976;BME280;68326;52.124;5.424;2023-07-31T05:22:58;100759.16;;;16.04;100.00
71976;BME280;68326;52.124;5.424;2023-07-31T05:25:24;100761.91;;;16.03;100.00
71976;BME280;68326;52.124;5.424;2023-07-31T05:27:51;100755.94;;;16.01;100.00
71976;BME280;68326;52.124;5.424;2023-07-31T05:30:17;100755.09;;;16.00;100.00
71976;BME280;68326;52.124;5.424;2023-07-31T05:32:44;100742.09;;;15.99;100.00
71976;BME280;68326;52.124;5.424;2023-07-31T05:35:11;100748.28;;;15.98;100.00
71976;BME280;68326;52.124;5.424;2023-07-31T05:37:37;100752.94;;;15.94;100.00
71976;BME280;68326;52.124;5.424;2023-07-31T05:40:04;100742.44;;;15.94;100.00
71976;BME280;68326;52.124;5.424;2023-07-31T05:42:31;100737.91;;;15.96;100.00
71976;BME280;68326;52.124;5.424;2023-07-31T05:44:58;100741.56;;;15.94;100.00
71976;BME280;68326;52.124;5.424;2023-07-31T05:47:24;100735.38;;;15.95;100.00
71976;BME280;68326;52.124;5.424;2023-07-31T05:49:51;100726.69;;;15.94;100.00
71976;BME280;68326;52.124;5.424;2023-07-31T05:52:19;100724.78;;;15.96;100.00
71976;BME280;68326;52.124;5.424;2023-07-31T05:54:45;100722.38;;;15.93;100.00
71976;BME280;68326;52.124;5.424;2023-07-31T05:57:12;100729.31;;;15.94;100.00
71976;BME280;68326;52.124;5.424;2023-07-31T05:59:38;100715.31;;;15.94;100.00
71976;BME280;68326;52.124;5.424;2023-07-31T06:02:05;100717.13;;;15.93;100.00
71976;BME280;68326;52.124;5.424;2023-07-31T06:04:32;100714.41;;;15.95;100.00
71976;BME280;68326;52.124;5.424;2023-07-31T06:06:59;100704.72;;;15.95;100.00
71976;BME280;68326;52.124;5.424;2023-07-31T06:09:26;100712.59;;;15.95;100.00
71976;BME280;68326;52.124;5.424;2023-07-31T06:11:53;100716.28;;;15.93;100.00
71976;BME280;68326;52.124;5.424;2023-07-31T06:14:20;100707.59;;;15.92;100.00
71976;BME280;68326;52.124;5.424;2023-07-31T06:16:46;100709.34;;;15.92;100.00
71976;BME280;68326;52.124;5.424;2023-07-31T06:19:13;100705.78;;;15.93;100.00
71976;BME280;68326;52.124;5.424;2023-07-31T06:21:39;100701.38;;;15.93;100.00
71976;BME280;68326;52.124;5.424;2023-07-31T06:24:08;100700.44;;;15.94;100.00
71976;BME280;68326;52.124;5.424;2023-07-31T06:26:35;100702.09;;;15.95;100.00
71976;BME280;68326;52.124;5.424;2023-07-31T06:29:01;100699.25;;;15.98;100.00
71976;BME280;68326;52.124;5.424;2023-07-31T06:31:28;100692.22;;;15.99;100.00
71976;BME280;68326;52.124;5.424;2023-07-31T06:33:54;100691.38;;;15.98;100.00
71976;BME280;68326;52.124;5.424;2023-07-31T06:36:21;100695.56;;;16.01;100.00
71976;BME280;68326;52.124;5.424;2023-07-31T06:38:48;100689.22;;;16.03;100.00
71976;BME280;68326;52.124;5.424;2023-07-31T06:41:14;100678.50;;;16.06;100.00
71976;BME280;68326;52.124;5.424;2023-07-31T06:43:41;100678.38;;;16.08;100.00
71976;BME280;68326;52.124;5.424;2023-07-31T06:46:07;100678.16;;;16.11;100.00
71976;BME280;68326;52.124;5.424;2023-07-31T06:48:35;100671.13;;;16.12;100.00
71976;BME280;68326;52.124;5.424;2023-07-31T06:51:03;100668.97;;;16.17;100.00
71976;BME280;68326;52.124;5.424;2023-07-31T06:53:29;100664.31;;;16.20;100.00
71976;BME280;68326;52.124;5.424;2023-07-31T06:55:56;100672.09;;;16.22;100.00
71976;BME280;68326;52.124;5.424;2023-07-31T06:58:22;100666.59;;;16.25;100.00
71976;BME280;68326;52.124;5.424;2023-07-31T07:00:49;100663.84;;;16.26;100.00
71976;BME280;68326;52.124;5.424;2023-07-31T07:03:19;100659.22;;;16.30;100.00
71976;BME280;68326;52.124;5.424;2023-07-31T07:05:46;100657.16;;;16.34;100.00
71976;BME280;68326;52.124;5.424;2023-07-31T07:08:13;100662.19;;;16.37;100.00
71976;BME280;68326;52.124;5.424;2023-07-31T07:10:40;100649.06;;;16.37;100.00
71976;BME280;68326;52.124;5.424;2023-07-31T07:13:06;100660.03;;;16.42;100.00
71976;BME280;68326;52.124;5.424;2023-07-31T07:15:33;100654.66;;;16.43;100.00
71976;BME280;68326;52.124;5.424;2023-07-31T07:17:59;100656.09;;;16.47;100.00
71976;BME280;68326;52.124;5.424;2023-07-31T07:20:26;100651.31;;;16.52;100.00
71976;BME280;68326;52.124;5.424;2023-07-31T07:22:52;100648.56;;;16.54;100.00
71976;BME280;68326;52.124;5.424;2023-07-31T07:25:18;100650.22;;;16.55;100.00
71976;BME280;68326;52.124;5.424;2023-07-31T07:27:45;100652.84;;;16.55;100.00
71976;BME280;68326;52.124;5.424;2023-07-31T07:30:11;100658.00;;;16.57;100.00
71976;BME280;68326;52.124;5.424;2023-07-31T07:32:38;100660.41;;;16.60;100.00
71976;BME280;68326;52.124;5.424;2023-07-31T07:35:05;100661.13;;;16.62;100.00
71976;BME280;68326;52.124;5.424;2023-07-31T07:37:32;100649.63;;;16.63;100.00
71976;BME280;68326;52.124;5.424;2023-07-31T07:39:59;100652.97;;;16.65;100.00
71976;BME280;68326;52.124;5.424;2023-07-31T07:42:25;100652.88;;;16.66;100.00
71976;BME280;68326;52.124;5.424;2023-07-31T07:44:52;100649.16;;;16.69;100.00
71976;BME280;68326;52.124;5.424;2023-07-31T07:47:18;100646.53;;;16.69;100.00
71976;BME280;68326;52.124;5.424;2023-07-31T07:49:45;100632.41;;;16.70;100.00
71976;BME280;68326;52.124;5.424;2023-07-31T07:52:18;100639.25;;;16.73;100.00
71976;BME280;68326;52.124;5.424;2023-07-31T07:54:45;100648.66;;;16.75;100.00
71976;BME280;68326;52.124;5.424;2023-07-31T07:57:11;100637.19;;;16.76;100.00
71976;BME280;68326;52.124;5.424;2023-07-31T07:59:38;100635.16;;;16.80;100.00
71976;BME280;68326;52.124;5.424;2023-07-31T08:02:05;100639.34;;;16.82;100.00
71976;BME280;68326;52.124;5.424;2023-07-31T08:04:31;100640.06;;;16.84;100.00
71976;BME280;68326;52.124;5.424;2023-07-31T08:06:58;100629.56;;;16.84;100.00
71976;BME280;68326;52.124;5.424;2023-07-31T08:09:24;100630.03;;;16.89;100.00
71976;BME280;68326;52.124;5.424;2023-07-31T08:11:51;100627.97;;;16.93;100.00
71976;BME280;68326;52.124;5.424;2023-07-31T08:14:17;100627.16;;;16.92;100.00
71976;BME280;68326;52.124;5.424;2023-07-31T08:16:44;100631.19;;;16.97;100.00
71976;BME280;68326;52.124;5.424;2023-07-31T08:19:12;100628.09;;;17.03;100.00
71976;BME280;68326;52.124;5.424;2023-07-31T08:21:38;100620.19;;;17.03;100.00
71976;BME280;68326;52.124;5.424;2023-07-31T08:24:05;100622.44;;;17.07;100.00
71976;BME280;68326;52.124;5.424;2023-07-31T08:26:32;100614.19;;;17.12;100.00
71976;BME280;68326;52.124;5.424;2023-07-31T08:28:58;100620.16;;;17.14;100.00
71976;BME280;68326;52.124;5.424;2023-07-31T08:31:25;100620.16;;;17.14;100.00
71976;BME280;68326;52.124;5.424;2023-07-31T08:33:53;100611.75;;;17.20;100.00
71976;BME280;68326;52.124;5.424;2023-07-31T08:36:19;100609.97;;;17.21;100.00
71976;BME280;68326;52.124;5.424;2023-07-31T08:38:46;100600.16;;;17.23;100.00
71976;BME280;68326;52.124;5.424;2023-07-31T08:41:13;100604.47;;;17.24;100.00
71976;BME280;68326;52.124;5.424;2023-07-31T08:43:40;100614.09;;;17.35;100.00
71976;BME280;68326;52.124;5.424;2023-07-31T08:46:07;100604.50;;;17.33;100.00
71976;BME280;68326;52.124;5.424;2023-07-31T08:48:35;100601.88;;;17.33;100.00
71976;BME280;68326;52.124;5.424;2023-07-31T08:51:03;100606.91;;;17.37;100.00
71976;BME280;68326;52.124;5.424;2023-07-31T08:53:30;100601.50;;;17.38;100.00
71976;BME280;68326;52.124;5.424;2023-07-31T08:55:58;100608.06;;;17.44;100.00
71976;BME280;68326;52.124;5.424;2023-07-31T08:58:30;100599.06;;;17.46;100.00
71976;BME280;68326;52.124;5.424;2023-07-31T09:00:59;100598.50;;;17.43;100.00
71976;BME280;68326;52.124;5.424;2023-07-31T09:03:27;100604.22;;;17.48;100.00
71976;BME280;68326;52.124;5.424;2023-07-31T09:05:58;100601.59;;;17.48;100.00
71976;BME280;68326;52.124;5.424;2023-07-31T09:08:30;100605.03;;;17.48;100.00
71976;BME280;68326;52.124;5.424;2023-07-31T09:11:01;100610.88;;;17.52;100.00
71976;BME280;68326;52.124;5.424;2023-07-31T09:13:30;100609.47;;;17.48;100.00
71976;BME280;68326;52.124;5.424;2023-07-31T09:15:57;100611.00;;;17.50;100.00
71976;BME280;68326;52.124;5.424;2023-07-31T09:18:24;100609.66;;;17.56;100.00
71976;BME280;68326;52.124;5.424;2023-07-31T09:21:06;100595.94;;;17.52;100.00
71976;BME280;68326;52.124;5.424;2023-07-31T09:23:41;100596.44;;;17.46;100.00
71976;BME280;68326;52.124;5.424;2023-07-31T09:26:08;100590.63;;;17.43;100.00
71976;BME280;68326;52.124;5.424;2023-07-31T09:28:35;100595.03;;;17.42;100.00
71976;BME280;68326;52.124;5.424;2023-07-31T09:31:01;100592.97;;;17.46;100.00
71976;BME280;68326;52.124;5.424;2023-07-31T09:33:28;100584.13;;;17.47;100.00
71976;BME280;68326;52.124;5.424;2023-07-31T09:35:54;100594.28;;;17.51;100.00
71976;BME280;68326;52.124;5.424;2023-07-31T09:38:21;100595.69;;;17.56;100.00
71976;BME280;68326;52.124;5.424;2023-07-31T09:40:48;100589.34;;;17.58;100.00
71976;BME280;68326;52.124;5.424;2023-07-31T09:43:19;100592.66;;;17.60;100.00
71976;BME280;68326;52.124;5.424;2023-07-31T09:45:47;100587.72;;;17.67;100.00
71976;BME280;68326;52.124;5.424;2023-07-31T09:48:15;100585.50;;;17.72;100.00
71976;BME280;68326;52.124;5.424;2023-07-31T09:50:48;100582.53;;;17.77;100.00
71976;BME280;68326;52.124;5.424;2023-07-31T09:53:16;100588.84;;;17.85;100.00
71976;BME280;68326;52.124;5.424;2023-07-31T09:55:43;100577.19;;;17.88;100.00
71976;BME280;68326;52.124;5.424;2023-07-31T09:58:12;100586.31;;;17.84;100.00
71976;BME280;68326;52.124;5.424;2023-07-31T10:00:39;100582.38;;;17.78;100.00
71976;BME280;68326;52.124;5.424;2023-07-31T10:03:08;100587.50;;;17.80;100.00
71976;BME280;68326;52.124;5.424;2023-07-31T10:05:40;100582.25;;;17.80;100.00
71976;BME280;68326;52.124;5.424;2023-07-31T10:08:09;100583.16;;;17.90;100.00
71976;BME280;68326;52.124;5.424;2023-07-31T10:10:41;100571.97;;;17.98;100.00
71976;BME280;68326;52.124;5.424;2023-07-31T10:13:08;100572.81;;;17.98;100.00
71976;BME280;68326;52.124;5.424;2023-07-31T10:15:35;100584.56;;;17.94;100.00
71976;BME280;68326;52.124;5.424;2023-07-31T10:18:02;100578.16;;;17.87;100.00
71976;BME280;68326;52.124;5.424;2023-07-31T10:20:32;100593.69;;;17.90;100.00
71976;BME280;68326;52.124;5.424;2023-07-31T10:22:59;100589.25;;;17.90;100.00
71976;BME280;68326;52.124;5.424;2023-07-31T10:25:29;100593.03;;;17.98;100.00
71976;BME280;68326;52.124;5.424;2023-07-31T10:27:57;100581.94;;;17.94;100.00
71976;BME280;68326;52.124;5.424;2023-07-31T10:30:29;100587.44;;;17.91;100.00
71976;BME280;68326;52.124;5.424;2023-07-31T10:32:57;100591.88;;;17.90;100.00
71976;BME280;68326;52.124;5.424;2023-07-31T10:35:24;100580.53;;;17.90;100.00
71976;BME280;68326;52.124;5.424;2023-07-31T10:37:51;100575.38;;;17.88;100.00
71976;BME280;68326;52.124;5.424;2023-07-31T10:40:23;100586.94;;;17.97;100.00
71976;BME280;68326;52.124;5.424;2023-07-31T10:42:57;100582.66;;;17.96;100.00
71976;BME280;68326;52.124;5.424;2023-07-31T10:48:04;100575.03;;;18.03;100.00
71976;BME280;68326;52.124;5.424;2023-07-31T10:50:36;100579.34;;;18.04;100.00
71976;BME280;68326;52.124;5.424;2023-07-31T10:53:03;100578.09;;;18.08;100.00
71976;BME280;68326;52.124;5.424;2023-07-31T10:55:39;100570.50;;;18.14;100.00
71976;BME280;68326;52.124;5.424;2023-07-31T10:58:12;100579.69;;;18.20;100.00
71976;BME280;68326;52.124;5.424;2023-07-31T11:00:43;100584.81;;;18.22;100.00
71976;BME280;68326;52.124;5.424;2023-07-31T11:03:12;100576.22;;;18.20;100.00
71976;BME280;68326;52.124;5.424;2023-07-31T11:05:44;100576.09;;;18.21;100.00
71976;BME280;68326;52.124;5.424;2023-07-31T11:08:32;100585.00;;;18.30;100.00
71976;BME280;68326;52.124;5.424;2023-07-31T11:13:42;100579.31;;;18.34;100.00
71976;BME280;68326;52.124;5.424;2023-07-31T11:16:09;100576.81;;;18.33;100.00
71976;BME280;68326;52.124;5.424;2023-07-31T11:18:39;100580.03;;;18.37;100.00
71976;BME280;68326;52.124;5.424;2023-07-31T11:21:05;100575.84;;;18.34;100.00
71976;BME280;68326;52.124;5.424;2023-07-31T11:23:32;100577.78;;;18.32;100.00
71976;BME280;68326;52.124;5.424;2023-07-31T11:26:00;100575.84;;;18.34;100.00
71976;BME280;68326;52.124;5.424;2023-07-31T11:28:31;100579.31;;;18.34;100.00
71976;BME280;68326;52.124;5.424;2023-07-31T11:30:59;100575.28;;;18.30;100.00
71976;BME280;68326;52.124;5.424;2023-07-31T11:33:26;100578.75;;;18.31;100.00
71976;BME280;68326;52.124;5.424;2023-07-31T11:35:53;100569.72;;;18.33;100.00
71976;BME280;68326;52.124;5.424;2023-07-31T11:38:27;100572.13;;;18.37;100.00
71976;BME280;68326;52.124;5.424;2023-07-31T11:40:58;100580.28;;;18.33;100.00
71976;BME280;68326;52.124;5.424;2023-07-31T11:43:25;100571.38;;;18.25;100.00
71976;BME280;68326;52.124;5.424;2023-07-31T11:45:55;100568.31;;;18.20;100.00
71976;BME280;68326;52.124;5.424;2023-07-31T11:48:27;100569.44;;;18.17;100.00
71976;BME280;68326;52.124;5.424;2023-07-31T11:50:57;100575.66;;;18.16;100.00
71976;BME280;68326;52.124;5.424;2023-07-31T11:53:38;100570.25;;;18.18;100.00
71976;BME280;68326;52.124;5.424;2023-07-31T11:56:05;100562.59;;;18.14;100.00
71976;BME280;68326;52.124;5.424;2023-07-31T11:58:34;100561.34;;;18.09;100.00
71976;BME280;68326;52.124;5.424;2023-07-31T12:01:01;100557.19;;;18.06;100.00
71976;BME280;68326;52.124;5.424;2023-07-31T12:03:29;100558.84;;;18.07;100.00
71976;BME280;68326;52.124;5.424;2023-07-31T12:05:58;100560.38;;;18.10;100.00
71976;BME280;68326;52.124;5.424;2023-07-31T12:08:25;100556.63;;;18.12;100.00
71976;BME280;68326;52.124;5.424;2023-07-31T12:10:53;100568.31;;;18.20;100.00
71976;BME280;68326;52.124;5.424;2023-07-31T12:13:22;100568.75;;;18.25;100.00
71976;BME280;68326;52.124;5.424;2023-07-31T12:15:54;100566.69;;;18.28;100.00
71976;BME280;68326;52.124;5.424;2023-07-31T12:18:21;100561.00;;;18.33;100.00
71976;BME280;68326;52.124;5.424;2023-07-31T12:20:53;100562.28;;;18.39;100.00
71976;BME280;68326;52.124;5.424;2023-07-31T12:23:22;100565.75;;;18.39;100.00
71976;BME280;68326;52.124;5.424;2023-07-31T12:26:04;100559.47;;;18.40;100.00
71976;BME280;68326;52.124;5.424;2023-07-31T12:28:35;100556.16;;;18.38;100.00
71976;BME280;68326;52.124;5.424;2023-07-31T12:31:04;100547.56;;;18.36;100.00
71976;BME280;68326;52.124;5.424;2023-07-31T12:33:32;100549.81;;;18.41;100.00
71976;BME280;68326;52.124;5.424;2023-07-31T12:36:02;100536.63;;;18.41;100.00
71976;BME280;68326;52.124;5.424;2023-07-31T12:38:30;100535.53;;;18.43;100.00
71976;BME280;68326;52.124;5.424;2023-07-31T12:40:56;100535.94;;;18.39;100.00
71976;BME280;68326;52.124;5.424;2023-07-31T12:43:23;100517.22;;;18.32;100.00
71976;BME280;68326;52.124;5.424;2023-07-31T12:45:49;100538.97;;;18.34;100.00
71976;BME280;68326;52.124;5.424;2023-07-31T12:48:16;100538.81;;;18.36;100.00
71976;BME280;68326;52.124;5.424;2023-07-31T12:50:42;100534.41;;;18.36;100.00
71976;BME280;68326;52.124;5.424;2023-07-31T12:53:09;100532.59;;;18.37;100.00